sensor_id;sensor_type;location;lat;lon;timestamp;pressure;altitude;pressure_sealevel;temperature;humidity
40574;BME280;26283;49.020;8.644;2023-02-28T00:00:17;100072.59;;;7.66;49.43
40574;BME280;26283;49.020;8.644;2023-02-28T00:02:43;100069.91;;;7.66;49.32
40574;BME280;26283;49.020;8.644;2023-02-28T00:05:10;100070.91;;;7.65;49.37
40574;BME280;26283;49.020;8.644;2023-02-28T00:07:36;100063.87;;;7.64;49.42
40574;BME280;26283;49.020;8.644;2023-02-28T00:10:03;100065.72;;;7.64;49.42
40574;BME280;26283;49.020;8.644;2023-02-28T00:12:29;100064.88;;;7.63;49.43
40574;BME280;26283;49.020;8.644;2023-02-28T00:14:54;100068.59;;;7.62;49.38
40574;BME280;26283;49.020;8.644;2023-02-28T00:17:20;100064.06;;;7.63;49.37
40574;BME280;26283;49.020;8.644;2023-02-28T00:19:50;100065.06;;;7.62;49.46
40574;BME280;26283;49.020;8.644;2023-02-28T00:22:20;100059.03;;;7.60;49.58
40574;BME280;26283;49.020;8.644;2023-02-28T00:24:46;100069.78;;;7.60;49.56
40574;BME280;26283;49.020;8.644;2023-02-28T00:27:13;100068.94;;;7.59;49.55
40574;BME280;26283;49.020;8.644;2023-02-28T00:29:38;100069.97;;;7.58;49.47
40574;BME280;26283;49.020;8.644;2023-02-28T00:32:04;100068.09;;;7.58;49.38
40574;BME280;26283;49.020;8.644;2023-02-28T00:34:30;100068.09;;;7.58;49.51
40574;BME280;26283;49.020;8.644;2023-02-28T00:36:55;100067.28;;;7.58;49.52
40574;BME280;26283;49.020;8.644;2023-02-28T00:39:21;100069.16;;;7.57;49.46
40574;BME280;26283;49.020;8.644;2023-02-28T00:41:47;100067.47;;;7.56;49.47
40574;BME280;26283;49.020;8.644;2023-02-28T00:44:12;100065.81;;;7.55;49.48
40574;BME280;26283;49.020;8.644;2023-02-28T00:46:37;100067.47;;;7.56;49.50
40574;BME280;26283;49.020;8.644;2023-02-28T00:49:03;100066.00;;;7.54;49.46
40574;BME280;26283;49.020;8.644;2023-02-28T00:51:28;100072.19;;;7.54;49.50
40574;BME280;26283;49.020;8.644;2023-02-28T00:53:54;100068.84;;;7.52;49.50
40574;BME280;26283;49.020;8.644;2023-02-28T00:56:19;100057.28;;;7.52;49.51
40574;BME280;26283;49.020;8.644;2023-02-28T00:58:45;100064.50;;;7.51;49.56
40574;BME280;26283;49.020;8.644;2023-02-28T01:01:10;100060.16;;;7.50;49.62
40574;BME280;26283;49.020;8.644;2023-02-28T01:03:35;100059.31;;;7.50;49.60
40574;BME280;26283;49.020;8.644;2023-02-28T01:06:01;100056.81;;;7.48;49.65
40574;BME280;26283;49.020;8.644;2023-02-28T01:08:27;100065.88;;;7.47;49.68
40574;BME280;26283;49.020;8.644;2023-02-28T01:10:52;100066.88;;;7.46;49.62
40574;BME280;26283;49.020;8.644;2023-02-28T01:13:19;100065.03;;;7.47;49.65
40574;BME280;26283;49.020;8.644;2023-02-28T01:15:55;100068.72;;;7.46;49.74
40574;BME280;26283;49.020;8.644;2023-02-28T01:18:22;100065.19;;;7.45;49.86
40574;BME280;26283;49.020;8.644;2023-02-28T01:20:48;100063.53;;;7.44;49.66
40574;BME280;26283;49.020;8.644;2023-02-28T01:23:14;100055.50;;;7.44;49.67
40574;BME280;26283;49.020;8.644;2023-02-28T01:25:39;100063.53;;;7.44;49.79
40574;BME280;26283;49.020;8.644;2023-02-28T01:28:05;100064.53;;;7.43;49.68
40574;BME280;26283;49.020;8.644;2023-02-28T01:30:31;100066.38;;;7.43;49.78
40574;BME280;26283;49.020;8.644;2023-02-28T01:32:56;100064.72;;;7.42;49.84
40574;BME280;26283;49.020;8.644;2023-02-28T01:35:21;100067.41;;;7.42;49.79
40574;BME280;26283;49.020;8.644;2023-02-28T01:37:47;100061.56;;;7.38;49.84
40574;BME280;26283;49.020;8.644;2023-02-28T01:40:13;100056.38;;;7.37;49.91
40574;BME280;26283;49.020;8.644;2023-02-28T01:42:38;100057.41;;;7.36;49.86
40574;BME280;26283;49.020;8.644;2023-02-28T01:45:27;100058.22;;;7.36;49.77
40574;BME280;26283;49.020;8.644;2023-02-28T01:48:01;100053.91;;;7.35;50.10
40574;BME280;26283;49.020;8.644;2023-02-28T01:50:30;100060.28;;;7.34;49.90
40574;BME280;26283;49.020;8.644;2023-02-28T01:52:59;100054.91;;;7.34;49.95
40574;BME280;26283;49.020;8.644;2023-02-28T01:55:27;100052.41;;;7.33;49.89
40574;BME280;26283;49.020;8.644;2023-02-28T01:57:57;100047.22;;;7.31;49.92
40574;BME280;26283;49.020;8.644;2023-02-28T02:00:26;100047.22;;;7.31;49.98
40574;BME280;26283;49.020;8.644;2023-02-28T02:03:00;100047.22;;;7.31;50.03
40574;BME280;26283;49.020;8.644;2023-02-28T02:05:30;100049.25;;;7.29;50.15
40574;BME280;26283;49.020;8.644;2023-02-28T02:08:15;100039.53;;;7.28;50.02
40574;BME280;26283;49.020;8.644;2023-02-28T02:10:50;100043.22;;;7.27;50.16
40574;BME280;26283;49.020;8.644;2023-02-28T02:13:41;100045.91;;;7.27;50.02
40574;BME280;26283;49.020;8.644;2023-02-28T02:35:53;100035.22;;;7.19;50.41
40574;BME280;26283;49.020;8.644;2023-02-28T02:38:35;100036.22;;;7.18;50.22
40574;BME280;26283;49.020;8.644;2023-02-28T02:41:36;100035.41;;;7.17;50.21
40574;BME280;26283;49.020;8.644;2023-02-28T02:46:38;100031.88;;;7.17;50.17
40574;BME280;26283;49.020;8.644;2023-02-28T02:49:09;100027.75;;;7.14;50.33
40574;BME280;26283;49.020;8.644;2023-02-28T02:51:37;100035.78;;;7.14;50.28
40574;BME280;26283;49.020;8.644;2023-02-28T02:54:08;100035.94;;;7.13;50.49
40574;BME280;26283;49.020;8.644;2023-02-28T02:56:38;100035.12;;;7.12;50.48
40574;BME280;26283;49.020;8.644;2023-02-28T02:59:08;100030.94;;;7.10;50.49
40574;BME280;26283;49.020;8.644;2023-02-28T03:01:36;100034.63;;;7.09;50.55
40574;BME280;26283;49.020;8.644;2023-02-28T03:04:08;100036.66;;;7.07;50.53
40574;BME280;26283;49.020;8.644;2023-02-28T03:06:34;100040.34;;;7.06;50.69
40574;BME280;26283;49.020;8.644;2023-02-28T03:09:00;100028.97;;;7.04;50.60
40574;BME280;26283;49.020;8.644;2023-02-28T03:11:26;100033.50;;;7.03;50.77
40574;BME280;26283;49.020;8.644;2023-02-28T03:19:39;100033.00;;;7.00;50.91
40574;BME280;26283;49.020;8.644;2023-02-28T03:25:20;100034.38;;;6.96;51.06
40574;BME280;26283;49.020;8.644;2023-02-28T03:28:00;100031.84;;;6.94;50.99
40574;BME280;26283;49.020;8.644;2023-02-28T03:30:52;100031.22;;;6.92;51.13
40574;BME280;26283;49.020;8.644;2023-02-28T03:33:23;100030.37;;;6.92;51.20
40574;BME280;26283;49.020;8.644;2023-02-28T03:36:14;100030.56;;;6.90;50.99
40574;BME280;26283;49.020;8.644;2023-02-28T03:38:46;100033.41;;;6.88;51.28
40574;BME280;26283;49.020;8.644;2023-02-28T03:41:19;100026.38;;;6.87;51.02
40574;BME280;26283;49.020;8.644;2023-02-28T03:43:53;100029.25;;;6.86;51.42
40574;BME280;26283;49.020;8.644;2023-02-28T03:46:23;100029.41;;;6.84;51.30
40574;BME280;26283;49.020;8.644;2023-02-28T03:49:03;100021.38;;;6.84;51.35
40574;BME280;26283;49.020;8.644;2023-02-28T03:51:31;100026.06;;;6.82;51.46
40574;BME280;26283;49.020;8.644;2023-02-28T03:54:01;100027.91;;;6.82;51.46
40574;BME280;26283;49.020;8.644;2023-02-28T03:56:38;100027.09;;;6.81;51.40
40574;BME280;26283;49.020;8.644;2023-02-28T03:59:37;100027.25;;;6.80;51.57
40574;BME280;26283;49.020;8.644;2023-02-28T04:02:05;100036.31;;;6.79;51.95
40574;BME280;26283;49.020;8.644;2023-02-28T04:04:31;100031.13;;;6.77;51.46
40574;BME280;26283;49.020;8.644;2023-02-28T04:07:07;100031.13;;;6.77;51.56
40574;BME280;26283;49.020;8.644;2023-02-28T04:09:34;100026.94;;;6.75;51.98
40574;BME280;26283;49.020;8.644;2023-02-28T04:12:00;100023.44;;;6.74;51.62
40574;BME280;26283;49.020;8.644;2023-02-28T04:14:26;100027.28;;;6.72;51.63
40574;BME280;26283;49.020;8.644;2023-02-28T04:16:51;100032.66;;;6.72;51.75
40574;BME280;26283;49.020;8.644;2023-02-28T04:19:17;100034.50;;;6.71;51.73
40574;BME280;26283;49.020;8.644;2023-02-28T04:21:45;100035.31;;;6.72;51.74
40574;BME280;26283;49.020;8.644;2023-02-28T04:24:16;100030.16;;;6.70;51.87
40574;BME280;26283;49.020;8.644;2023-02-28T04:26:45;100021.31;;;6.70;51.75
40574;BME280;26283;49.020;8.644;2023-02-28T04:29:12;100032.00;;;6.70;51.92
40574;BME280;26283;49.020;8.644;2023-02-28T04:31:38;100018.78;;;6.68;51.84
40574;BME280;26283;49.020;8.644;2023-02-28T04:34:04;100033.03;;;6.69;51.75
40574;BME280;26283;49.020;8.644;2023-02-28T04:36:29;100019.81;;;6.67;52.03
40574;BME280;26283;49.020;8.644;2023-02-28T04:38:55;100027.84;;;6.67;52.03
40574;BME280;26283;49.020;8.644;2023-02-28T04:41:23;100026.34;;;6.65;52.15
40574;BME280;26283;49.020;8.644;2023-02-28T04:43:50;100023.66;;;6.65;52.02
40574;BME280;26283;49.020;8.644;2023-02-28T04:46:15;100023.66;;;6.65;52.13
40574;BME280;26283;49.020;8.644;2023-02-28T04:48:41;100028.34;;;6.63;52.03
40574;BME280;26283;49.020;8.644;2023-02-28T04:51:12;100031.69;;;6.65;52.20
40574;BME280;26283;49.020;8.644;2023-02-28T04:53:39;100026.50;;;6.63;52.19
40574;BME280;26283;49.020;8.644;2023-02-28T04:56:05;100021.16;;;6.63;52.25
40574;BME280;26283;49.020;8.644;2023-02-28T04:58:31;100025.00;;;6.61;52.26
40574;BME280;26283;49.020;8.644;2023-02-28T05:01:04;100026.03;;;6.60;52.18
40574;BME280;26283;49.020;8.644;2023-02-28T05:03:30;100028.53;;;6.61;52.01
40574;BME280;26283;49.020;8.644;2023-02-28T05:05:55;100026.84;;;6.60;51.92
40574;BME280;26283;49.020;8.644;2023-02-28T05:08:20;100030.37;;;6.61;51.99
40574;BME280;26283;49.020;8.644;2023-02-28T05:10:46;100034.06;;;6.60;52.13
40574;BME280;26283;49.020;8.644;2023-02-28T05:13:12;100034.06;;;6.60;52.03
40574;BME280;26283;49.020;8.644;2023-02-28T05:15:38;100031.56;;;6.58;52.04
40574;BME280;26283;49.020;8.644;2023-02-28T05:18:04;100032.56;;;6.57;52.19
40574;BME280;26283;49.020;8.644;2023-02-28T05:20:29;100040.59;;;6.57;52.32
40574;BME280;26283;49.020;8.644;2023-02-28T05:22:56;100035.25;;;6.57;52.34
40574;BME280;26283;49.020;8.644;2023-02-28T05:25:22;100040.94;;;6.54;52.27
40574;BME280;26283;49.020;8.644;2023-02-28T05:27:48;100039.25;;;6.53;52.22
40574;BME280;26283;49.020;8.644;2023-02-28T05:30:14;100040.94;;;6.54;52.30
40574;BME280;26283;49.020;8.644;2023-02-28T05:32:40;100045.47;;;6.53;52.27
40574;BME280;26283;49.020;8.644;2023-02-28T05:35:10;100047.28;;;6.53;52.47
40574;BME280;26283;49.020;8.644;2023-02-28T05:37:37;100038.44;;;6.52;52.34
40574;BME280;26283;49.020;8.644;2023-02-28T05:40:03;100040.09;;;6.53;52.33
40574;BME280;26283;49.020;8.644;2023-02-28T05:42:31;100036.75;;;6.51;52.45
40574;BME280;26283;49.020;8.644;2023-02-28T05:44:56;100038.59;;;6.51;52.63
40574;BME280;26283;49.020;8.644;2023-02-28T05:47:22;100039.59;;;6.50;52.54
40574;BME280;26283;49.020;8.644;2023-02-28T05:49:47;100047.63;;;6.50;52.44
40574;BME280;26283;49.020;8.644;2023-02-28T05:52:12;100038.81;;;6.49;52.42
40574;BME280;26283;49.020;8.644;2023-02-28T05:54:38;100048.69;;;6.49;52.59
40574;BME280;26283;49.020;8.644;2023-02-28T05:57:03;100044.97;;;6.50;52.64
40574;BME280;26283;49.020;8.644;2023-02-28T05:59:28;100046.00;;;6.49;52.41
40574;BME280;26283;49.020;8.644;2023-02-28T06:01:54;100046.16;;;6.47;52.46
40574;BME280;26283;49.020;8.644;2023-02-28T06:04:21;100044.31;;;6.48;52.43
40574;BME280;26283;49.020;8.644;2023-02-28T06:06:47;100042.66;;;6.47;52.45
40574;BME280;26283;49.020;8.644;2023-02-28T06:09:13;100050.69;;;6.47;52.44
40574;BME280;26283;49.020;8.644;2023-02-28T06:11:39;100046.34;;;6.46;52.45
40574;BME280;26283;49.020;8.644;2023-02-28T06:14:05;100049.03;;;6.46;52.53
40574;BME280;26283;49.020;8.644;2023-02-28T06:16:32;100048.19;;;6.45;52.59
40574;BME280;26283;49.020;8.644;2023-02-28T06:19:03;100043.66;;;6.46;52.59
40574;BME280;26283;49.020;8.644;2023-02-28T06:21:29;100049.03;;;6.46;52.46
40574;BME280;26283;49.020;8.644;2023-02-28T06:23:56;100048.19;;;6.45;52.53
40574;BME280;26283;49.020;8.644;2023-02-28T06:26:21;100055.38;;;6.45;52.55
40574;BME280;26283;49.020;8.644;2023-02-28T06:28:47;100050.19;;;6.43;52.55
40574;BME280;26283;49.020;8.644;2023-02-28T06:31:15;100057.41;;;6.43;52.55
40574;BME280;26283;49.020;8.644;2023-02-28T06:33:41;100058.41;;;6.42;52.61
40574;BME280;26283;49.020;8.644;2023-02-28T06:36:09;100053.03;;;6.42;52.71
40574;BME280;26283;49.020;8.644;2023-02-28T06:38:35;100061.91;;;6.42;52.68
40574;BME280;26283;49.020;8.644;2023-02-28T06:41:01;100060.06;;;6.43;52.70
40574;BME280;26283;49.020;8.644;2023-02-28T06:43:32;100063.75;;;6.42;52.62
40574;BME280;26283;49.020;8.644;2023-02-28T06:45:59;100069.09;;;6.42;52.72
40574;BME280;26283;49.020;8.644;2023-02-28T06:48:26;100064.75;;;6.41;52.62
40574;BME280;26283;49.020;8.644;2023-02-28T06:50:51;100074.81;;;6.39;52.68
40574;BME280;26283;49.020;8.644;2023-02-28T06:53:17;100088.84;;;6.41;52.71
40574;BME280;26283;49.020;8.644;2023-02-28T06:55:42;100079.16;;;6.40;52.55
40574;BME280;26283;49.020;8.644;2023-02-28T06:58:07;100092.38;;;6.41;52.48
40574;BME280;26283;49.020;8.644;2023-02-28T07:00:43;100084.50;;;6.40;52.51
40574;BME280;26283;49.020;8.644;2023-02-28T07:03:09;100084.69;;;6.38;52.58
40574;BME280;26283;49.020;8.644;2023-02-28T07:05:38;100083.00;;;6.37;52.52
40574;BME280;26283;49.020;8.644;2023-02-28T07:08:05;100087.34;;;6.38;52.65
40574;BME280;26283;49.020;8.644;2023-02-28T07:10:34;100088.34;;;6.37;52.55
40574;BME280;26283;49.020;8.644;2023-02-28T07:13:00;100094.53;;;6.38;52.61
40574;BME280;26283;49.020;8.644;2023-02-28T07:15:25;100097.22;;;6.38;52.64
40574;BME280;26283;49.020;8.644;2023-02-28T07:17:51;100093.72;;;6.37;52.55
40574;BME280;26283;49.020;8.644;2023-02-28T07:20:16;100102.75;;;6.36;52.58
40574;BME280;26283;49.020;8.644;2023-02-28T07:22:42;100103.59;;;6.37;52.52
40574;BME280;26283;49.020;8.644;2023-02-28T07:25:08;100102.75;;;6.36;52.56
40574;BME280;26283;49.020;8.644;2023-02-28T07:27:33;100108.09;;;6.36;52.63
40574;BME280;26283;49.020;8.644;2023-02-28T07:29:59;100117.31;;;6.34;52.61
40574;BME280;26283;49.020;8.644;2023-02-28T07:32:26;100115.47;;;6.34;52.58
40574;BME280;26283;49.020;8.644;2023-02-28T07:34:52;100117.31;;;6.34;52.65
40574;BME280;26283;49.020;8.644;2023-02-28T07:37:17;100110.12;;;6.34;52.57
40574;BME280;26283;49.020;8.644;2023-02-28T07:39:43;100113.62;;;6.35;52.67
40574;BME280;26283;49.020;8.644;2023-02-28T07:42:08;100113.62;;;6.35;52.64
40574;BME280;26283;49.020;8.644;2023-02-28T07:44:37;100115.47;;;6.34;52.73
40574;BME280;26283;49.020;8.644;2023-02-28T07:47:09;100115.63;;;6.33;52.78
40574;BME280;26283;49.020;8.644;2023-02-28T07:49:36;100111.28;;;6.32;52.65
40574;BME280;26283;49.020;8.644;2023-02-28T07:52:05;100113.97;;;6.32;52.67
40574;BME280;26283;49.020;8.644;2023-02-28T07:54:31;100112.28;;;6.31;52.72
40574;BME280;26283;49.020;8.644;2023-02-28T07:56:57;100122.00;;;6.32;52.67
40574;BME280;26283;49.020;8.644;2023-02-28T07:59:22;100112.97;;;6.33;52.67
40574;BME280;26283;49.020;8.644;2023-02-28T08:01:48;100110.28;;;6.33;52.68
40574;BME280;26283;49.020;8.644;2023-02-28T08:04:18;100107.59;;;6.33;52.61
40574;BME280;26283;49.020;8.644;2023-02-28T08:06:44;100107.59;;;6.33;52.68
40574;BME280;26283;49.020;8.644;2023-02-28T08:09:09;100115.81;;;6.31;52.80
40574;BME280;26283;49.020;8.644;2023-02-28T08:11:35;100119.47;;;6.30;52.64
40574;BME280;26283;49.020;8.644;2023-02-28T08:14:01;100113.28;;;6.30;52.58
40574;BME280;26283;49.020;8.644;2023-02-28T08:16:26;100122.00;;;6.32;52.61
40574;BME280;26283;49.020;8.644;2023-02-28T08:18:52;100123.84;;;6.31;52.79
40574;BME280;26283;49.020;8.644;2023-02-28T08:21:18;100122.16;;;6.30;52.66
40574;BME280;26283;49.020;8.644;2023-02-28T08:23:49;100122.31;;;6.29;52.69
40574;BME280;26283;49.020;8.644;2023-02-28T08:26:18;100123.00;;;6.31;52.66
40574;BME280;26283;49.020;8.644;2023-02-28T08:28:44;100128.34;;;6.31;52.62
40574;BME280;26283;49.020;8.644;2023-02-28T08:31:11;100125.69;;;6.31;52.61
40574;BME280;26283;49.020;8.644;2023-02-28T08:33:38;100124.66;;;6.32;52.67
40574;BME280;26283;49.020;8.644;2023-02-28T08:36:05;100119.47;;;6.30;52.63
40574;BME280;26283;49.020;8.644;2023-02-28T08:38:31;100127.50;;;6.30;52.63
40574;BME280;26283;49.020;8.644;2023-02-28T08:41:07;100131.19;;;6.29;52.55
40574;BME280;26283;49.020;8.644;2023-02-28T08:43:35;100132.88;;;6.30;52.83
40574;BME280;26283;49.020;8.644;2023-02-28T08:46:01;100136.38;;;6.31;52.72
40574;BME280;26283;49.020;8.644;2023-02-28T08:48:28;100135.53;;;6.30;52.73
40574;BME280;26283;49.020;8.644;2023-02-28T08:51:02;100134.72;;;6.30;52.74
40574;BME280;26283;49.020;8.644;2023-02-28T08:53:28;100133.03;;;6.29;52.69
40574;BME280;26283;49.020;8.644;2023-02-28T08:55:58;100134.72;;;6.30;52.61
40574;BME280;26283;49.020;8.644;2023-02-28T08:58:24;100132.88;;;6.30;52.61
40574;BME280;26283;49.020;8.644;2023-02-28T09:00:50;100134.38;;;6.33;52.59
40574;BME280;26283;49.020;8.644;2023-02-28T09:03:15;100133.53;;;6.32;52.56
40574;BME280;26283;49.020;8.644;2023-02-28T09:05:41;100129.03;;;6.33;52.56
40574;BME280;26283;49.020;8.644;2023-02-28T09:08:06;100133.38;;;6.34;52.61
40574;BME280;26283;49.020;8.644;2023-02-28T09:10:32;100128.00;;;6.34;52.47
40574;BME280;26283;49.020;8.644;2023-02-28T09:12:57;100125.16;;;6.35;52.53
40574;BME280;26283;49.020;8.644;2023-02-28T09:15:22;100131.38;;;6.36;52.46
40574;BME280;26283;49.020;8.644;2023-02-28T09:17:48;100137.72;;;6.35;52.49
40574;BME280;26283;49.020;8.644;2023-02-28T09:20:13;100138.72;;;6.34;52.68
40574;BME280;26283;49.020;8.644;2023-02-28T09:22:39;100141.41;;;6.34;52.59
40574;BME280;26283;49.020;8.644;2023-02-28T09:25:04;100142.41;;;6.33;52.55
40574;BME280;26283;49.020;8.644;2023-02-28T09:27:30;100141.41;;;6.34;52.50
40574;BME280;26283;49.020;8.644;2023-02-28T09:29:55;100158.31;;;6.34;54.21
40574;BME280;26283;49.020;8.644;2023-02-28T09:32:20;100148.44;;;6.43;54.13
40574;BME280;26283;49.020;8.644;2023-02-28T09:34:46;100153.44;;;6.46;54.01
40574;BME280;26283;49.020;8.644;2023-02-28T09:37:11;100151.44;;;6.48;54.00
40574;BME280;26283;49.020;8.644;2023-02-28T09:39:36;100158.47;;;6.49;54.03
40574;BME280;26283;49.020;8.644;2023-02-28T09:42:02;100153.09;;;6.49;54.04
40574;BME280;26283;49.020;8.644;2023-02-28T09:44:36;100163.63;;;6.50;54.08
40574;BME280;26283;49.020;8.644;2023-02-28T09:47:36;100149.59;;;6.48;54.14
40574;BME280;26283;49.020;8.644;2023-02-28T09:50:31;100153.28;;;6.47;54.26
40574;BME280;26283;49.020;8.644;2023-02-28T09:53:02;100147.09;;;6.47;54.27
40574;BME280;26283;49.020;8.644;2023-02-28T09:55:36;100152.44;;;6.47;54.32
40574;BME280;26283;49.020;8.644;2023-02-28T09:58:03;100153.28;;;6.47;54.38
40574;BME280;26283;49.020;8.644;2023-02-28T10:00:34;100142.56;;;6.47;54.44
40574;BME280;26283;49.020;8.644;2023-02-28T10:03:39;100152.44;;;6.47;54.50
40574;BME280;26283;49.020;8.644;2023-02-28T10:08:39;100156.78;;;6.48;54.59
40574;BME280;26283;49.020;8.644;2023-02-28T10:11:09;100150.75;;;6.46;54.65
40574;BME280;26283;49.020;8.644;2023-02-28T10:16:31;100155.13;;;6.47;54.71
40574;BME280;26283;49.020;8.644;2023-02-28T10:19:22;100151.44;;;6.48;54.73
40574;BME280;26283;49.020;8.644;2023-02-28T10:21:59;100157.78;;;6.47;54.77
40574;BME280;26283;49.020;8.644;2023-02-28T10:24:32;100163.81;;;6.49;54.77
40574;BME280;26283;49.020;8.644;2023-02-28T10:27:12;100162.97;;;6.48;54.80
40574;BME280;26283;49.020;8.644;2023-02-28T10:29:40;100166.31;;;6.50;54.81
40574;BME280;26283;49.020;8.644;2023-02-28T10:32:11;100163.63;;;6.50;54.82
40574;BME280;26283;49.020;8.644;2023-02-28T10:34:39;100158.25;;;6.50;54.86
40574;BME280;26283;49.020;8.644;2023-02-28T10:37:04;100166.31;;;6.50;54.88
40574;BME280;26283;49.020;8.644;2023-02-28T10:39:35;100159.94;;;6.51;54.88
40574;BME280;26283;49.020;8.644;2023-02-28T10:42:01;100163.28;;;6.53;54.87
40574;BME280;26283;49.020;8.644;2023-02-28T10:44:26;100165.97;;;6.53;54.88
40574;BME280;26283;49.020;8.644;2023-02-28T10:46:52;100165.97;;;6.53;54.93
40574;BME280;26283;49.020;8.644;2023-02-28T10:49:23;100165.13;;;6.53;54.94
40574;BME280;26283;49.020;8.644;2023-02-28T10:51:54;100159.59;;;6.54;54.94
40574;BME280;26283;49.020;8.644;2023-02-28T10:54:24;100164.78;;;6.56;54.91
40574;BME280;26283;49.020;8.644;2023-02-28T10:57:12;100156.75;;;6.56;54.87
40574;BME280;26283;49.020;8.644;2023-02-28T10:59:39;100165.47;;;6.58;54.89
40574;BME280;26283;49.020;8.644;2023-02-28T11:04:56;100161.78;;;6.59;54.89
40574;BME280;26283;49.020;8.644;2023-02-28T11:07:23;100156.41;;;6.59;54.89
40574;BME280;26283;49.020;8.644;2023-02-28T11:09:52;100150.22;;;6.59;54.91
40574;BME280;26283;49.020;8.644;2023-02-28T11:12:26;100154.75;;;6.58;54.92
40574;BME280;26283;49.020;8.644;2023-02-28T11:14:57;100161.78;;;6.59;54.95
40574;BME280;26283;49.020;8.644;2023-02-28T11:17:28;100155.41;;;6.60;54.94
40574;BME280;26283;49.020;8.644;2023-02-28T11:20:01;100152.72;;;6.60;54.97
40574;BME280;26283;49.020;8.644;2023-02-28T11:22:31;100153.56;;;6.61;54.94
40574;BME280;26283;49.020;8.644;2023-02-28T11:24:59;100148.22;;;6.61;54.96
40574;BME280;26283;49.020;8.644;2023-02-28T11:29:54;100139.00;;;6.63;54.95
40574;BME280;26283;49.020;8.644;2023-02-28T11:32:21;100147.72;;;6.65;54.96
40574;BME280;26283;49.020;8.644;2023-02-28T11:37:27;100150.38;;;6.65;54.95
40574;BME280;26283;49.020;8.644;2023-02-28T11:39:53;100138.66;;;6.66;54.93
40574;BME280;26283;49.020;8.644;2023-02-28T11:42:34;100142.19;;;6.67;54.95
40574;BME280;26283;49.020;8.644;2023-02-28T11:59:43;100137.31;;;6.70;54.91
40574;BME280;26283;49.020;8.644;2023-02-28T12:02:26;100138.31;;;6.69;54.86
40574;BME280;26283;49.020;8.644;2023-02-28T12:10:30;100127.44;;;6.71;54.95
40574;BME280;26283;49.020;8.644;2023-02-28T12:15:34;100136.28;;;6.71;54.96
40574;BME280;26283;49.020;8.644;2023-02-28T12:20:54;100134.25;;;6.73;54.90
40574;BME280;26283;49.020;8.644;2023-02-28T12:23:52;100132.41;;;6.74;54.86
40574;BME280;26283;49.020;8.644;2023-02-28T12:26:39;100126.72;;;6.77;54.88
40574;BME280;26283;49.020;8.644;2023-02-28T12:32:09;100125.88;;;6.76;54.83
40574;BME280;26283;49.020;8.644;2023-02-28T12:34:46;100122.88;;;6.79;54.85
40574;BME280;26283;49.020;8.644;2023-02-28T12:37:19;100117.50;;;6.79;54.82
40574;BME280;26283;49.020;8.644;2023-02-28T12:39:49;100113.00;;;6.80;54.83
40574;BME280;26283;49.020;8.644;2023-02-28T12:42:24;100110.12;;;6.81;54.82
40574;BME280;26283;49.020;8.644;2023-02-28T12:44:57;100117.34;;;6.81;54.83
40574;BME280;26283;49.020;8.644;2023-02-28T12:47:24;100100.25;;;6.82;54.80
40574;BME280;26283;49.020;8.644;2023-02-28T12:49:56;100100.75;;;6.85;54.76
40574;BME280;26283;49.020;8.644;2023-02-28T12:52:31;100108.78;;;6.85;54.73
40574;BME280;26283;49.020;8.644;2023-02-28T12:55:13;100106.44;;;6.91;54.70
40574;BME280;26283;49.020;8.644;2023-02-28T12:58:37;100101.06;;;6.91;54.66
40574;BME280;26283;49.020;8.644;2023-02-28T13:01:13;100100.06;;;6.92;54.64
40574;BME280;26283;49.020;8.644;2023-02-28T13:09:23;100083.78;;;6.93;54.63
40574;BME280;26283;49.020;8.644;2023-02-28T13:11:50;100086.28;;;6.95;54.62
40574;BME280;26283;49.020;8.644;2023-02-28T13:17:11;100088.78;;;6.96;54.59
40574;BME280;26283;49.020;8.644;2023-02-28T13:19:40;100097.50;;;6.98;54.57
40574;BME280;26283;49.020;8.644;2023-02-28T13:24:52;100075.03;;;6.99;54.53
40574;BME280;26283;49.020;8.644;2023-02-28T13:29:43;100088.09;;;7.02;54.50
40574;BME280;26283;49.020;8.644;2023-02-28T13:34:41;100093.94;;;7.06;54.47
40574;BME280;26283;49.020;8.644;2023-02-28T13:37:41;100084.91;;;7.07;54.46
40574;BME280;26283;49.020;8.644;2023-02-28T13:42:46;100091.09;;;7.07;54.43
40574;BME280;26283;49.020;8.644;2023-02-28T13:55:57;100085.38;;;7.10;54.40
40574;BME280;26283;49.020;8.644;2023-02-28T13:58:52;100083.53;;;7.11;54.38
40574;BME280;26283;49.020;8.644;2023-02-28T14:06:59;100092.06;;;7.14;54.36
40574;BME280;26283;49.020;8.644;2023-02-28T14:09:34;100089.19;;;7.16;54.35
40574;BME280;26283;49.020;8.644;2023-02-28T14:17:54;100095.19;;;7.18;54.34
40574;BME280;26283;49.020;8.644;2023-02-28T14:20:21;100093.38;;;7.18;54.33
40574;BME280;26283;49.020;8.644;2023-02-28T14:28:11;100088.47;;;7.22;54.32
40574;BME280;26283;49.020;8.644;2023-02-28T14:33:42;100084.63;;;7.25;54.27
40574;BME280;26283;49.020;8.644;2023-02-28T14:38:52;100085.28;;;7.27;54.25
40574;BME280;26283;49.020;8.644;2023-02-28T14:41:34;100082.59;;;7.27;54.24
40574;BME280;26283;49.020;8.644;2023-02-28T14:44:03;100079.75;;;7.28;54.22
40574;BME280;26283;49.020;8.644;2023-02-28T14:46:39;100076.06;;;7.29;54.22
40574;BME280;26283;49.020;8.644;2023-02-28T14:49:07;100075.88;;;7.31;54.20
40574;BME280;26283;49.020;8.644;2023-02-28T14:51:38;100076.53;;;7.33;54.20
40574;BME280;26283;49.020;8.644;2023-02-28T14:54:03;100085.41;;;7.33;54.17
40574;BME280;26283;49.020;8.644;2023-02-28T14:56:36;100080.06;;;7.33;54.16
40574;BME280;26283;49.020;8.644;2023-02-28T14:59:03;100081.53;;;7.36;54.13
40574;BME280;26283;49.020;8.644;2023-02-28T15:01:29;100086.69;;;7.37;54.12
40574;BME280;26283;49.020;8.644;2023-02-28T15:04:05;100082.19;;;7.38;54.12
40574;BME280;26283;49.020;8.644;2023-02-28T15:06:32;100084.69;;;7.39;54.10
40574;BME280;26283;49.020;8.644;2023-02-28T15:09:15;100099.09;;;7.38;54.08
40574;BME280;26283;49.020;8.644;2023-02-28T15:11:42;100090.03;;;7.39;54.06
40574;BME280;26283;49.020;8.644;2023-02-28T15:14:17;100091.72;;;7.40;54.03
40574;BME280;26283;49.020;8.644;2023-02-28T15:16:45;100082.84;;;7.40;54.04